Vilhelmina, Vilhelmina Airport (ESNV)

NameVilhelmina Airport
CityVilhelmina
CountrySweden
ICAOESNV
IATAVHM
Altitude347 m
CoordinatesGoogle Map
Live Air TrafficLiveATC.net
METARESNV 232050Z AUTO 22008KT 9999 OVC130/// 05/03 Q1020
2019-02-23 20:50:00 Wind: South-Southwest (220°) 4.12 m/s - Visibility: > 10000 m - Temperature: 5 °C - Dew point: 3 °C - Humidity: 87.1% - Pressure: 1020 hPa

Sorry, no flights used the airport in this database.